createdAt,value
2022-12-02T00:01:04.430Z,9.82
2022-12-02T00:03:35.577Z,9.68
2022-12-02T00:06:04.050Z,9.57
2022-12-02T00:08:33.672Z,9.65
2022-12-02T00:11:02.834Z,9.53
2022-12-02T00:13:43.473Z,9.52
2022-12-02T00:16:22.950Z,9.46
2022-12-02T00:18:51.674Z,9.48
2022-12-02T00:21:20.085Z,9.34
2022-12-02T00:23:48.287Z,9.34
2022-12-02T00:26:15.976Z,9.29
2022-12-02T00:28:43.608Z,9.32
2022-12-02T00:31:11.458Z,9.19
2022-12-02T00:33:39.574Z,9.36
2022-12-02T00:36:07.630Z,9.36
2022-12-02T00:38:35.783Z,9.32
2022-12-02T00:41:03.759Z,9.26
2022-12-02T00:43:52.353Z,9.31
2022-12-02T00:46:32.527Z,9.28
2022-12-02T00:49:02.388Z,9.16
2022-12-02T00:51:31.244Z,9.12
2022-12-02T00:53:59.303Z,9.24
2022-12-02T00:56:27.179Z,9.28
2022-12-02T00:58:55.337Z,9.24
2022-12-02T01:01:24.914Z,9.26
2022-12-02T01:03:53.342Z,9.13
2022-12-02T01:06:21.330Z,9.15
2022-12-02T01:08:49.309Z,9.15
2022-12-02T01:11:18.062Z,9.11
2022-12-02T01:13:45.651Z,9.24
2022-12-02T01:16:16.508Z,9.15
2022-12-02T01:18:44.786Z,9.16
2022-12-02T01:21:12.888Z,9.14
2022-12-02T01:23:41.053Z,9.21
2022-12-02T01:26:09.364Z,9.32
2022-12-02T01:28:37.181Z,9.09
2022-12-02T01:31:04.936Z,9.11
2022-12-02T01:33:32.762Z,9.08
2022-12-02T01:36:00.431Z,9.23
2022-12-02T01:38:28.562Z,9.21
2022-12-02T01:40:56.663Z,9.06
2022-12-02T01:43:24.653Z,9.06
2022-12-02T01:45:53.400Z,8.92
2022-12-02T01:48:21.465Z,8.77
2022-12-02T01:50:50.108Z,8.87
2022-12-02T01:53:17.936Z,8.89
2022-12-02T01:55:45.938Z,8.96
2022-12-02T01:58:15.240Z,9.02
2022-12-02T02:00:43.169Z,8.89
2022-12-02T02:03:10.946Z,8.92
2022-12-02T02:05:39.402Z,8.91
2022-12-02T02:08:10.627Z,8.87
2022-12-02T02:10:40.553Z,8.97
2022-12-02T02:13:11.302Z,9.11
2022-12-02T02:15:41.272Z,9.02
2022-12-02T02:18:12.125Z,9.07
2022-12-02T02:20:41.461Z,8.95
2022-12-02T02:23:09.987Z,8.84
2022-12-02T02:25:51.868Z,8.86
2022-12-02T02:28:24.738Z,8.78
2022-12-02T02:30:56.867Z,8.88
2022-12-02T02:33:31.481Z,8.87
2022-12-02T02:36:01.409Z,8.76
2022-12-02T02:38:32.719Z,8.73
2022-12-02T02:41:02.693Z,8.75
2022-12-02T02:43:31.487Z,8.80
2022-12-02T02:46:01.626Z,8.74
2022-12-02T02:48:37.044Z,8.72
2022-12-02T02:51:06.315Z,8.86
2022-12-02T02:53:36.913Z,8.68
2022-12-02T02:56:06.715Z,8.86
2022-12-02T02:58:36.758Z,8.84
2022-12-02T03:01:14.057Z,8.64
2022-12-02T03:03:47.797Z,8.65
2022-12-02T03:06:16.857Z,8.67
2022-12-02T03:08:48.072Z,8.87
2022-12-02T03:11:15.998Z,8.80
2022-12-02T03:13:47.294Z,8.81
2022-12-02T03:16:17.408Z,8.73
2022-12-02T03:18:47.113Z,8.75
2022-12-02T03:21:17.671Z,8.79
2022-12-02T03:23:46.650Z,8.67
2022-12-02T03:26:16.083Z,8.64
2022-12-02T03:28:44.914Z,8.80
2022-12-02T03:31:13.702Z,8.69
2022-12-02T03:33:43.342Z,8.77
2022-12-02T03:36:11.327Z,8.72
2022-12-02T03:38:39.439Z,8.57
2022-12-02T03:41:07.930Z,8.67
2022-12-02T03:43:35.651Z,8.62
2022-12-02T03:46:05.566Z,8.68
2022-12-02T03:48:36.736Z,8.71
2022-12-02T03:51:04.949Z,8.78
2022-12-02T03:53:34.072Z,8.67
2022-12-02T03:56:06.651Z,8.62
2022-12-02T03:58:40.438Z,8.57
2022-12-02T04:01:08.273Z,8.75
2022-12-02T04:03:36.292Z,8.85
2022-12-02T04:06:03.963Z,8.88
2022-12-02T04:08:31.614Z,8.84
2022-12-02T04:11:00.462Z,8.75
2022-12-02T04:13:28.823Z,8.74
2022-12-02T04:15:56.985Z,8.68
2022-12-02T04:18:24.810Z,8.69
2022-12-02T04:20:52.859Z,8.84
2022-12-02T04:23:21.368Z,8.85
2022-12-02T04:25:50.049Z,8.85
2022-12-02T04:28:19.199Z,8.67
2022-12-02T04:30:47.516Z,8.76
2022-12-02T04:33:15.408Z,8.84
2022-12-02T04:35:43.518Z,8.85
2022-12-02T04:38:13.691Z,8.97
2022-12-02T04:40:41.382Z,9.02
2022-12-02T04:43:09.625Z,9.04
2022-12-02T04:45:37.805Z,8.99
2022-12-02T04:48:06.414Z,9.01
2022-12-02T04:50:34.452Z,8.97
2022-12-02T04:53:02.210Z,8.78
2022-12-02T04:55:29.812Z,8.90
2022-12-02T04:57:57.869Z,8.93
2022-12-02T05:00:25.703Z,8.69
2022-12-02T05:02:53.464Z,8.62
2022-12-02T05:05:23.809Z,8.40
2022-12-02T05:07:52.443Z,8.49
2022-12-02T05:10:20.560Z,8.38
2022-12-02T05:12:48.282Z,8.31
2022-12-02T05:15:16.457Z,8.20
2022-12-02T05:17:44.060Z,8.14
2022-12-02T05:20:13.455Z,8.04
2022-12-02T05:22:43.709Z,8.05
2022-12-02T05:25:12.915Z,7.95
2022-12-02T05:27:40.593Z,8.05
2022-12-02T05:30:09.233Z,8.11
2022-12-02T05:32:37.310Z,8.11
2022-12-02T05:35:05.917Z,8.08
2022-12-02T05:37:33.554Z,8.00
2022-12-02T05:40:01.934Z,7.83
2022-12-02T05:42:30.365Z,7.90
2022-12-02T05:45:01.810Z,7.95
2022-12-02T05:47:33.674Z,8.04
2022-12-02T05:50:01.665Z,8.09
2022-12-02T05:52:30.020Z,8.09
2022-12-02T05:55:02.043Z,8.18
2022-12-02T05:57:32.017Z,8.05
2022-12-02T06:00:17.663Z,8.25
2022-12-02T06:02:50.299Z,8.33
2022-12-02T06:05:31.435Z,8.35
2022-12-02T06:08:13.709Z,8.28
2022-12-02T06:10:43.919Z,8.15
2022-12-02T06:13:19.787Z,8.19
2022-12-02T06:15:49.602Z,8.28
2022-12-02T06:18:21.634Z,8.38
2022-12-02T06:20:56.600Z,8.35
2022-12-02T06:23:27.590Z,8.43
2022-12-02T06:25:56.696Z,8.21
2022-12-02T06:28:35.373Z,8.43
2022-12-02T06:31:19.349Z,8.34
2022-12-02T06:33:48.941Z,8.32
2022-12-02T06:36:24.228Z,8.35
2022-12-02T06:38:56.956Z,8.30
2022-12-02T06:41:27.944Z,8.30
2022-12-02T06:44:20.667Z,8.40
2022-12-02T06:46:48.796Z,8.41
2022-12-02T06:49:20.678Z,8.35
2022-12-02T06:52:00.881Z,8.33
2022-12-02T06:54:31.038Z,8.25
2022-12-02T06:57:02.250Z,8.35
2022-12-02T06:59:31.384Z,8.45
2022-12-02T07:02:08.007Z,8.51
2022-12-02T07:04:49.931Z,8.62
2022-12-02T07:07:31.463Z,8.62
2022-12-02T07:10:02.831Z,8.69
2022-12-02T07:12:33.006Z,8.54
2022-12-02T07:15:22.653Z,8.71
2022-12-02T07:17:50.364Z,8.87
2022-12-02T07:20:32.502Z,8.78
2022-12-02T07:23:21.828Z,8.66
2022-12-02T07:25:56.937Z,8.62
2022-12-02T07:28:33.839Z,8.67
2022-12-02T07:31:19.841Z,8.94
2022-12-02T07:33:48.793Z,8.92
2022-12-02T07:36:17.502Z,8.79
2022-12-02T07:41:36.732Z,8.74
2022-12-02T07:44:06.556Z,8.91
2022-12-02T07:46:34.344Z,8.86
2022-12-02T07:49:02.051Z,8.91
2022-12-02T07:51:30.053Z,8.86
2022-12-02T07:53:58.182Z,8.88
2022-12-02T07:56:25.804Z,9.09
2022-12-02T08:01:41.926Z,9.09
2022-12-02T08:04:10.216Z,9.08
2022-12-02T08:06:40.089Z,9.10
2022-12-02T08:09:10.283Z,9.07
2022-12-02T08:11:37.955Z,9.21
2022-12-02T08:14:06.041Z,9.18
2022-12-02T08:16:34.333Z,9.19
2022-12-02T08:19:02.611Z,9.30
2022-12-02T08:21:32.486Z,9.41
2022-12-02T08:24:00.752Z,9.49
2022-12-02T08:26:28.432Z,9.66
2022-12-02T08:28:56.644Z,9.73
2022-12-02T08:31:25.503Z,9.66
2022-12-02T08:33:53.404Z,9.60
2022-12-02T08:36:21.737Z,9.72
2022-12-02T08:38:49.647Z,9.74
2022-12-02T08:41:17.744Z,9.91
2022-12-02T08:43:45.349Z,9.90
2022-12-02T08:46:13.407Z,9.89
2022-12-02T08:48:43.666Z,9.90
2022-12-02T08:51:11.343Z,9.98
2022-12-02T08:53:39.289Z,10.15
2022-12-02T08:56:07.527Z,10.16
2022-12-02T08:58:35.417Z,10.29
2022-12-02T09:01:03.457Z,10.38
2022-12-02T09:06:13.297Z,10.65
2022-12-02T09:08:40.925Z,10.52
2022-12-02T09:11:08.609Z,10.23
2022-12-02T09:13:36.649Z,10.17
2022-12-02T09:16:04.480Z,10.16
2022-12-02T09:18:32.037Z,10.14
2022-12-02T09:21:00.354Z,10.37
2022-12-02T09:23:29.571Z,9.93
2022-12-02T09:25:57.440Z,9.84
2022-12-02T09:28:25.285Z,9.93
2022-12-02T09:30:53.073Z,10.25
2022-12-02T09:33:21.366Z,10.38
2022-12-02T09:35:51.371Z,10.43
2022-12-02T09:38:19.111Z,10.35
2022-12-02T09:40:46.948Z,10.21
2022-12-02T09:43:14.827Z,9.93
2022-12-02T09:45:42.438Z,10.01
2022-12-02T09:48:11.280Z,10.09
2022-12-02T09:50:40.663Z,10.03
2022-12-02T09:53:08.418Z,9.89
2022-12-02T09:55:37.934Z,10.01
2022-12-02T09:58:15.966Z,10.06
2022-12-02T10:00:44.857Z,9.98
2022-12-02T10:03:18.924Z,10.13
2022-12-02T10:05:47.665Z,10.15
2022-12-02T10:08:28.389Z,10.26
2022-12-02T10:10:59.545Z,9.97
2022-12-02T10:13:27.764Z,10.16
2022-12-02T10:15:55.753Z,10.01
2022-12-02T10:18:28.172Z,10.00
2022-12-02T10:20:56.204Z,9.86
2022-12-02T10:23:26.444Z,10.00
2022-12-02T10:26:09.486Z,9.85
2022-12-02T10:28:38.575Z,9.72
2022-12-02T10:31:11.070Z,9.97
2022-12-02T10:33:42.065Z,10.10
2022-12-02T10:36:10.540Z,10.25
2022-12-02T10:38:43.505Z,10.24
2022-12-02T10:41:23.223Z,10.04
2022-12-02T10:43:54.282Z,9.80
2022-12-02T10:46:23.380Z,9.82
2022-12-02T10:48:50.938Z,9.74
2022-12-02T10:51:21.168Z,9.83
2022-12-02T10:53:57.256Z,9.87
2022-12-02T10:56:24.798Z,9.95
2022-12-02T10:58:52.830Z,9.86
2022-12-02T11:01:23.347Z,9.82
2022-12-02T11:03:51.376Z,9.96
2022-12-02T11:06:22.269Z,9.71
2022-12-02T11:08:50.282Z,9.54
2022-12-02T11:11:38.204Z,9.93
2022-12-02T11:14:12.608Z,10.33
2022-12-02T11:16:51.427Z,10.47
2022-12-02T11:19:45.138Z,10.94
2022-12-02T11:22:47.780Z,10.84
2022-12-02T11:25:43.484Z,11.12
2022-12-02T11:28:29.217Z,11.16
2022-12-02T11:31:14.813Z,11.32
2022-12-02T11:33:54.083Z,11.31
2022-12-02T11:36:25.405Z,11.18
2022-12-02T11:38:52.932Z,10.82
2022-12-02T11:41:26.114Z,11.10
2022-12-02T11:43:59.864Z,11.26
2022-12-02T11:46:46.128Z,11.38
2022-12-02T11:49:46.037Z,11.49
2022-12-02T11:52:23.425Z,11.29
2022-12-02T11:55:14.650Z,11.11
2022-12-02T11:57:56.614Z,11.02
2022-12-02T12:00:38.329Z,11.42
2022-12-02T12:03:15.777Z,11.54
2022-12-02T12:06:11.160Z,11.52
2022-12-02T12:08:44.861Z,11.90
2022-12-02T12:11:15.539Z,12.31
2022-12-02T12:14:01.700Z,12.54
2022-12-02T12:16:35.563Z,12.78
2022-12-02T12:19:22.966Z,12.98
2022-12-02T12:21:54.318Z,12.89
2022-12-02T12:24:23.638Z,12.63
2022-12-02T12:27:04.894Z,12.67
2022-12-02T12:29:36.558Z,12.57
2022-12-02T12:32:06.305Z,12.25
2022-12-02T12:34:34.493Z,12.25
2022-12-02T12:37:02.062Z,12.26
2022-12-02T12:39:29.701Z,12.18
2022-12-02T12:42:00.312Z,12.20
2022-12-02T12:44:31.848Z,12.31
2022-12-02T12:47:05.390Z,11.99
2022-12-02T12:49:34.417Z,11.88
2022-12-02T12:52:03.047Z,11.66
2022-12-02T12:54:31.133Z,11.52
2022-12-02T12:56:58.755Z,11.47
2022-12-02T12:59:27.101Z,11.47
2022-12-02T13:01:54.676Z,11.34
2022-12-02T13:04:22.672Z,11.39
2022-12-02T13:06:50.335Z,11.34
2022-12-02T13:09:18.272Z,11.35
2022-12-02T13:11:45.870Z,11.21
2022-12-02T13:14:13.365Z,11.16
2022-12-02T13:16:41.424Z,10.94
2022-12-02T13:19:09.373Z,11.13
2022-12-02T13:21:36.871Z,10.94
2022-12-02T13:24:05.604Z,10.79
2022-12-02T13:26:34.013Z,10.39
2022-12-02T13:29:01.609Z,10.37
2022-12-02T13:31:29.359Z,10.55
2022-12-02T13:33:57.079Z,10.44
2022-12-02T13:36:26.066Z,10.44
2022-12-02T13:38:54.224Z,10.54
2022-12-02T13:41:21.730Z,10.58
2022-12-02T13:43:49.332Z,10.67
2022-12-02T13:46:16.890Z,10.51
2022-12-02T13:48:44.929Z,10.37
2022-12-02T13:51:12.912Z,10.30
2022-12-02T13:53:41.012Z,10.45
2022-12-02T13:56:09.142Z,10.50
2022-12-02T13:58:37.282Z,10.45
2022-12-02T14:01:05.264Z,10.42
2022-12-02T14:03:33.549Z,10.34
2022-12-02T14:06:01.220Z,10.30
2022-12-02T14:08:28.824Z,10.53
2022-12-02T14:10:56.846Z,10.40
2022-12-02T14:13:24.622Z,10.49
2022-12-02T14:15:52.389Z,10.38
2022-12-02T14:18:22.351Z,10.46
2022-12-02T14:20:49.896Z,10.30
2022-12-02T14:23:17.996Z,10.34
2022-12-02T14:25:45.689Z,10.21
2022-12-02T14:28:13.531Z,10.19
2022-12-02T14:30:41.527Z,10.20
2022-12-02T14:33:09.448Z,10.22
2022-12-02T14:35:37.020Z,10.26
2022-12-02T14:38:05.092Z,10.39
2022-12-02T14:40:34.741Z,10.49
2022-12-02T14:43:02.366Z,10.48
2022-12-02T14:45:30.379Z,10.41
2022-12-02T14:47:57.979Z,10.44
2022-12-02T14:50:30.292Z,10.32
2022-12-02T14:52:58.280Z,10.36
2022-12-02T14:55:26.575Z,10.33
2022-12-02T14:57:54.472Z,10.47
2022-12-02T15:00:22.164Z,10.52
2022-12-02T15:02:49.846Z,10.44
2022-12-02T15:05:20.853Z,10.45
2022-12-02T15:07:48.631Z,10.25
2022-12-02T15:10:17.101Z,10.20
2022-12-02T15:12:47.695Z,10.25
2022-12-02T15:15:37.360Z,10.28
2022-12-02T15:18:03.319Z,10.10
2022-12-02T15:20:30.989Z,10.04
2022-12-02T15:23:02.066Z,9.90
2022-12-02T15:25:33.842Z,9.86
2022-12-02T15:28:01.572Z,9.93
2022-12-02T15:30:32.699Z,10.01
2022-12-02T15:33:00.539Z,10.02
2022-12-02T15:35:30.857Z,9.91
2022-12-02T15:37:58.463Z,10.06
2022-12-02T15:40:29.267Z,10.13
2022-12-02T15:43:00.427Z,10.02
2022-12-02T15:45:27.952Z,9.95
2022-12-02T15:47:55.896Z,10.08
2022-12-02T15:50:24.055Z,9.99
2022-12-02T15:52:52.087Z,9.97
2022-12-02T15:55:20.193Z,10.01
2022-12-02T15:57:47.847Z,9.97
2022-12-02T16:00:19.003Z,10.10
2022-12-02T16:02:51.280Z,10.02
2022-12-02T16:05:22.751Z,10.10
2022-12-02T16:07:51.171Z,10.09
2022-12-02T16:10:18.782Z,10.08
2022-12-02T16:12:46.370Z,10.05
2022-12-02T16:15:14.312Z,10.17
2022-12-02T16:17:42.705Z,10.17
2022-12-02T16:20:14.091Z,10.04
2022-12-02T16:22:41.652Z,9.96
2022-12-02T16:25:11.895Z,10.04
2022-12-02T16:27:39.763Z,10.04
2022-12-02T16:30:08.154Z,10.05
2022-12-02T16:32:36.316Z,10.07
2022-12-02T16:35:04.051Z,10.08
2022-12-02T16:37:31.723Z,10.00
2022-12-02T16:39:59.940Z,10.00
2022-12-02T16:42:28.192Z,9.96
2022-12-02T16:44:56.211Z,9.96
2022-12-02T16:47:24.483Z,9.98
2022-12-02T16:49:52.060Z,9.93
2022-12-02T16:52:19.938Z,9.99
2022-12-02T16:54:47.636Z,10.03
2022-12-02T16:57:15.290Z,10.05
2022-12-02T16:59:44.230Z,9.92
2022-12-02T17:02:12.355Z,9.81
2022-12-02T17:04:40.700Z,9.84
2022-12-02T17:07:09.217Z,9.94
2022-12-02T17:09:36.901Z,9.95
2022-12-02T17:12:04.919Z,9.92
2022-12-02T17:14:32.521Z,9.95
2022-12-02T17:17:13.247Z,9.97
2022-12-02T17:19:49.272Z,9.82
2022-12-02T17:22:16.827Z,9.88
2022-12-02T17:24:44.443Z,9.79
2022-12-02T17:27:12.432Z,9.76
2022-12-02T17:29:40.567Z,9.74
2022-12-02T17:32:08.195Z,9.69
2022-12-02T17:34:35.818Z,9.63
2022-12-02T17:37:03.619Z,9.58
2022-12-02T17:39:33.455Z,9.62
2022-12-02T17:42:01.283Z,9.63
2022-12-02T17:44:30.602Z,9.56
2022-12-02T17:46:58.204Z,9.51
2022-12-02T17:49:34.091Z,9.57
2022-12-02T17:52:19.240Z,9.57
2022-12-02T17:54:48.779Z,9.58
2022-12-02T17:57:16.989Z,9.62
2022-12-02T17:59:45.001Z,9.47
2022-12-02T18:02:13.416Z,9.45
2022-12-02T18:04:49.526Z,9.50
2022-12-02T18:07:17.686Z,9.37
2022-12-02T18:09:45.269Z,9.40
2022-12-02T18:12:13.297Z,9.39
2022-12-02T18:14:41.676Z,9.27
2022-12-02T18:17:09.496Z,9.21
2022-12-02T18:19:37.299Z,9.26
2022-12-02T18:22:05.255Z,9.16
2022-12-02T18:24:32.907Z,9.14
2022-12-02T18:27:00.457Z,9.16
2022-12-02T18:29:28.281Z,9.15
2022-12-02T18:31:56.286Z,9.15
2022-12-02T18:34:24.600Z,9.20
2022-12-02T18:36:53.266Z,9.14
2022-12-02T18:39:21.243Z,9.11
2022-12-02T18:41:49.110Z,9.15
2022-12-02T18:44:16.647Z,9.25
2022-12-02T18:46:44.361Z,9.38
2022-12-02T18:49:12.687Z,9.38
2022-12-02T18:51:40.767Z,9.43
2022-12-02T18:54:08.842Z,9.28
2022-12-02T18:56:36.369Z,9.50
2022-12-02T18:59:04.709Z,9.46
2022-12-02T19:01:41.272Z,9.16
2022-12-02T19:04:10.352Z,9.18
2022-12-02T19:06:38.309Z,9.13
2022-12-02T19:09:06.645Z,9.06
2022-12-02T19:11:34.236Z,8.98
2022-12-02T19:14:01.892Z,9.02
2022-12-02T19:16:30.359Z,8.90
2022-12-02T19:18:58.471Z,8.94
2022-12-02T19:21:26.844Z,8.94
2022-12-02T19:23:54.793Z,8.91
2022-12-02T19:26:23.319Z,8.91
2022-12-02T19:28:51.646Z,8.98
2022-12-02T19:31:19.837Z,8.93
2022-12-02T19:33:48.162Z,9.01
2022-12-02T19:36:16.074Z,9.00
2022-12-02T19:38:43.978Z,8.95
2022-12-02T19:41:11.996Z,8.92
2022-12-02T19:43:40.297Z,8.94
2022-12-02T19:46:07.963Z,8.99
2022-12-02T19:48:36.144Z,9.01
2022-12-02T19:51:03.769Z,9.09
2022-12-02T19:53:31.772Z,9.03
2022-12-02T19:55:59.324Z,8.98
2022-12-02T19:58:27.419Z,9.13
2022-12-02T20:00:54.983Z,9.16
2022-12-02T20:03:22.684Z,9.09
2022-12-02T20:05:50.285Z,9.05
2022-12-02T20:08:17.863Z,9.07
2022-12-02T20:10:45.490Z,9.19
2022-12-02T20:13:13.791Z,9.18
2022-12-02T20:15:42.080Z,9.20
2022-12-02T20:18:10.010Z,9.18
2022-12-02T20:20:38.272Z,9.11
2022-12-02T20:23:06.238Z,9.07
2022-12-02T20:25:34.023Z,8.93
2022-12-02T20:28:02.385Z,8.91
2022-12-02T20:30:30.715Z,8.76
2022-12-02T20:32:58.380Z,8.63
2022-12-02T20:35:26.307Z,8.64
2022-12-02T20:37:54.024Z,8.71
2022-12-02T20:40:21.640Z,8.80
2022-12-02T20:42:49.410Z,8.50
2022-12-02T20:45:17.966Z,8.54
2022-12-02T20:47:45.535Z,8.59
2022-12-02T20:50:13.103Z,8.67
2022-12-02T20:52:40.705Z,8.73
2022-12-02T20:55:09.610Z,8.70
2022-12-02T20:57:37.140Z,8.70
2022-12-02T21:00:05.727Z,8.68
2022-12-02T21:02:33.556Z,8.73
2022-12-02T21:05:01.438Z,8.71
2022-12-02T21:07:29.284Z,8.76
2022-12-02T21:09:57.177Z,8.81
2022-12-02T21:12:24.716Z,8.86
2022-12-02T21:14:53.528Z,8.95
2022-12-02T21:17:22.195Z,8.71
2022-12-02T21:19:49.996Z,8.70
2022-12-02T21:22:18.239Z,8.78
2022-12-02T21:24:46.183Z,8.86
2022-12-02T21:27:15.324Z,9.01
2022-12-02T21:29:43.509Z,8.98
2022-12-02T21:32:11.019Z,8.97
2022-12-02T21:34:38.528Z,8.83
2022-12-02T21:37:06.128Z,8.66
2022-12-02T21:39:34.246Z,8.65
2022-12-02T21:42:02.598Z,8.56
2022-12-02T21:44:30.524Z,8.46
2022-12-02T21:46:58.149Z,8.53
2022-12-02T21:49:25.755Z,8.43
2022-12-02T21:51:53.273Z,8.33
2022-12-02T21:54:21.246Z,8.28
2022-12-02T21:56:49.223Z,8.31
2022-12-02T21:59:16.852Z,8.36
2022-12-02T22:01:45.931Z,8.30
2022-12-02T22:04:17.261Z,8.34
2022-12-02T22:06:45.829Z,8.44
2022-12-02T22:09:13.378Z,8.49
2022-12-02T22:11:41.397Z,8.64
2022-12-02T22:14:09.192Z,8.59
2022-12-02T22:16:36.834Z,8.54
2022-12-02T22:19:04.402Z,8.52
2022-12-02T22:21:32.390Z,8.66
2022-12-02T22:24:00.728Z,8.68
2022-12-02T22:26:28.245Z,8.65
2022-12-02T22:28:55.864Z,8.58
2022-12-02T22:31:23.412Z,8.51
2022-12-02T22:33:51.011Z,8.55
2022-12-02T22:36:18.575Z,8.65
2022-12-02T22:38:46.072Z,8.55
2022-12-02T22:41:13.705Z,8.41
2022-12-02T22:43:41.302Z,8.21
2022-12-02T22:46:08.959Z,8.29
2022-12-02T22:48:36.679Z,8.35
2022-12-02T22:51:04.444Z,8.21
2022-12-02T22:53:32.422Z,8.12
2022-12-02T22:56:00.298Z,8.21
2022-12-02T22:58:27.837Z,8.15
2022-12-02T23:00:55.968Z,8.29
2022-12-02T23:03:24.402Z,8.31
2022-12-02T23:05:52.566Z,8.27
2022-12-02T23:08:20.256Z,8.29
2022-12-02T23:10:49.263Z,8.39
2022-12-02T23:13:16.900Z,8.48
2022-12-02T23:15:44.412Z,8.51
2022-12-02T23:18:12.220Z,8.45
2022-12-02T23:20:40.161Z,8.45
2022-12-02T23:23:07.761Z,8.40
2022-12-02T23:25:35.342Z,8.35
2022-12-02T23:28:03.237Z,8.35
2022-12-02T23:30:30.732Z,8.33
2022-12-02T23:32:59.335Z,8.25
2022-12-02T23:35:28.322Z,8.29
2022-12-02T23:37:56.091Z,8.32
2022-12-02T23:40:23.769Z,8.45
2022-12-02T23:42:51.299Z,8.49
2022-12-02T23:45:19.239Z,8.58
2022-12-02T23:47:47.256Z,8.69
2022-12-02T23:50:15.839Z,8.77
2022-12-02T23:52:43.817Z,8.75
2022-12-02T23:55:11.400Z,8.84
2022-12-02T23:57:39.040Z,8.72
